sensor_id;sensor_type;location;lat;lon;timestamp;P1;durP1;ratioP1;P2;durP2;ratioP2
11100;SDS011;5604;50.722;7.078;2023-05-06T00:01:21;12.67;;;11.33;;
11100;SDS011;5604;50.722;7.078;2023-05-06T00:03:50;12.13;;;10.80;;
11100;SDS011;5604;50.722;7.078;2023-05-06T00:06:18;14.77;;;11.80;;
11100;SDS011;5604;50.722;7.078;2023-05-06T00:08:46;12.63;;;11.33;;
11100;SDS011;5604;50.722;7.078;2023-05-06T00:11:14;12.97;;;11.60;;
11100;SDS011;5604;50.722;7.078;2023-05-06T00:13:43;13.03;;;11.53;;
11100;SDS011;5604;50.722;7.078;2023-05-06T00:16:12;12.67;;;10.93;;
11100;SDS011;5604;50.722;7.078;2023-05-06T00:18:40;11.47;;;10.30;;
11100;SDS011;5604;50.722;7.078;2023-05-06T00:21:09;12.70;;;10.90;;
11100;SDS011;5604;50.722;7.078;2023-05-06T00:23:38;14.47;;;10.90;;
11100;SDS011;5604;50.722;7.078;2023-05-06T00:26:06;14.00;;;10.20;;
11100;SDS011;5604;50.722;7.078;2023-05-06T00:28:35;12.03;;;9.47;;
11100;SDS011;5604;50.722;7.078;2023-05-06T00:31:03;11.80;;;9.73;;
11100;SDS011;5604;50.722;7.078;2023-05-06T00:33:33;10.63;;;9.53;;
11100;SDS011;5604;50.722;7.078;2023-05-06T00:36:01;12.27;;;9.47;;
11100;SDS011;5604;50.722;7.078;2023-05-06T00:38:30;13.80;;;10.50;;
11100;SDS011;5604;50.722;7.078;2023-05-06T00:40:58;13.73;;;10.20;;
11100;SDS011;5604;50.722;7.078;2023-05-06T00:43:26;12.10;;;10.90;;
11100;SDS011;5604;50.722;7.078;2023-05-06T00:45:54;13.43;;;10.80;;
11100;SDS011;5604;50.722;7.078;2023-05-06T00:48:22;13.50;;;10.77;;
11100;SDS011;5604;50.722;7.078;2023-05-06T00:50:52;11.23;;;10.13;;
11100;SDS011;5604;50.722;7.078;2023-05-06T00:53:20;11.20;;;9.57;;
11100;SDS011;5604;50.722;7.078;2023-05-06T00:55:48;11.10;;;9.90;;
11100;SDS011;5604;50.722;7.078;2023-05-06T00:58:17;10.57;;;9.50;;
11100;SDS011;5604;50.722;7.078;2023-05-06T01:00:45;14.83;;;10.67;;
11100;SDS011;5604;50.722;7.078;2023-05-06T01:03:14;14.63;;;10.80;;
11100;SDS011;5604;50.722;7.078;2023-05-06T01:05:45;13.13;;;10.63;;
11100;SDS011;5604;50.722;7.078;2023-05-06T01:08:21;12.53;;;11.10;;
11100;SDS011;5604;50.722;7.078;2023-05-06T01:10:54;13.90;;;11.07;;
11100;SDS011;5604;50.722;7.078;2023-05-06T01:13:28;14.43;;;11.70;;
11100;SDS011;5604;50.722;7.078;2023-05-06T01:15:58;13.13;;;11.00;;
11100;SDS011;5604;50.722;7.078;2023-05-06T01:18:26;11.73;;;10.53;;
11100;SDS011;5604;50.722;7.078;2023-05-06T01:20:58;12.67;;;10.57;;
11100;SDS011;5604;50.722;7.078;2023-05-06T01:23:28;12.00;;;10.37;;
11100;SDS011;5604;50.722;7.078;2023-05-06T01:25:57;12.00;;;10.70;;
11100;SDS011;5604;50.722;7.078;2023-05-06T01:28:25;12.37;;;11.07;;
11100;SDS011;5604;50.722;7.078;2023-05-06T01:30:55;11.80;;;10.60;;
11100;SDS011;5604;50.722;7.078;2023-05-06T01:33:28;13.57;;;11.37;;
11100;SDS011;5604;50.722;7.078;2023-05-06T01:36:02;16.53;;;11.30;;
11100;SDS011;5604;50.722;7.078;2023-05-06T01:38:40;14.60;;;10.97;;
11100;SDS011;5604;50.722;7.078;2023-05-06T01:41:13;13.93;;;11.80;;
11100;SDS011;5604;50.722;7.078;2023-05-06T01:43:43;12.57;;;11.27;;
11100;SDS011;5604;50.722;7.078;2023-05-06T01:46:12;13.70;;;11.43;;
11100;SDS011;5604;50.722;7.078;2023-05-06T01:48:42;13.00;;;11.50;;
11100;SDS011;5604;50.722;7.078;2023-05-06T01:51:12;13.27;;;11.87;;
11100;SDS011;5604;50.722;7.078;2023-05-06T01:53:41;13.40;;;12.00;;
11100;SDS011;5604;50.722;7.078;2023-05-06T01:56:09;11.57;;;10.37;;
11100;SDS011;5604;50.722;7.078;2023-05-06T01:58:38;13.57;;;12.23;;
11100;SDS011;5604;50.722;7.078;2023-05-06T02:01:06;12.37;;;11.17;;
11100;SDS011;5604;50.722;7.078;2023-05-06T02:03:34;13.80;;;12.27;;
11100;SDS011;5604;50.722;7.078;2023-05-06T02:06:03;12.23;;;10.93;;
11100;SDS011;5604;50.722;7.078;2023-05-06T02:08:35;13.87;;;11.73;;
11100;SDS011;5604;50.722;7.078;2023-05-06T02:11:08;13.77;;;12.37;;
11100;SDS011;5604;50.722;7.078;2023-05-06T02:13:36;14.10;;;12.60;;
11100;SDS011;5604;50.722;7.078;2023-05-06T02:16:06;15.03;;;12.77;;
11100;SDS011;5604;50.722;7.078;2023-05-06T02:18:36;13.37;;;11.93;;
11100;SDS011;5604;50.722;7.078;2023-05-06T02:21:04;14.87;;;13.37;;
11100;SDS011;5604;50.722;7.078;2023-05-06T02:23:32;14.27;;;12.70;;
11100;SDS011;5604;50.722;7.078;2023-05-06T02:26:00;14.03;;;12.40;;
11100;SDS011;5604;50.722;7.078;2023-05-06T02:28:30;14.03;;;12.70;;
11100;SDS011;5604;50.722;7.078;2023-05-06T02:30:58;16.20;;;12.00;;
11100;SDS011;5604;50.722;7.078;2023-05-06T02:33:26;15.17;;;12.63;;
11100;SDS011;5604;50.722;7.078;2023-05-06T02:35:54;13.43;;;12.17;;
11100;SDS011;5604;50.722;7.078;2023-05-06T02:38:23;13.57;;;12.17;;
11100;SDS011;5604;50.722;7.078;2023-05-06T02:40:52;13.07;;;11.77;;
11100;SDS011;5604;50.722;7.078;2023-05-06T02:43:20;13.07;;;11.77;;
11100;SDS011;5604;50.722;7.078;2023-05-06T02:45:50;14.07;;;12.63;;
11100;SDS011;5604;50.722;7.078;2023-05-06T02:48:18;13.33;;;12.03;;
11100;SDS011;5604;50.722;7.078;2023-05-06T02:50:46;14.80;;;12.63;;
11100;SDS011;5604;50.722;7.078;2023-05-06T02:53:14;14.53;;;12.33;;
11100;SDS011;5604;50.722;7.078;2023-05-06T02:55:42;14.30;;;12.27;;
11100;SDS011;5604;50.722;7.078;2023-05-06T02:58:10;12.73;;;11.43;;
11100;SDS011;5604;50.722;7.078;2023-05-06T03:00:39;14.00;;;12.50;;
11100;SDS011;5604;50.722;7.078;2023-05-06T03:03:09;13.97;;;12.53;;
11100;SDS011;5604;50.722;7.078;2023-05-06T03:05:37;13.40;;;11.33;;
11100;SDS011;5604;50.722;7.078;2023-05-06T03:08:05;14.93;;;11.87;;
11100;SDS011;5604;50.722;7.078;2023-05-06T03:10:34;13.93;;;12.33;;
11100;SDS011;5604;50.722;7.078;2023-05-06T03:13:02;14.27;;;12.77;;
11100;SDS011;5604;50.722;7.078;2023-05-06T03:15:31;14.03;;;12.50;;
11100;SDS011;5604;50.722;7.078;2023-05-06T03:17:59;14.90;;;13.33;;
11100;SDS011;5604;50.722;7.078;2023-05-06T03:20:29;18.00;;;13.30;;
11100;SDS011;5604;50.722;7.078;2023-05-06T03:22:59;13.47;;;12.07;;
11100;SDS011;5604;50.722;7.078;2023-05-06T03:25:28;13.27;;;11.87;;
11100;SDS011;5604;50.722;7.078;2023-05-06T03:27:56;16.60;;;12.70;;
11100;SDS011;5604;50.722;7.078;2023-05-06T03:30:25;14.23;;;12.80;;
11100;SDS011;5604;50.722;7.078;2023-05-06T03:32:58;14.20;;;12.77;;
11100;SDS011;5604;50.722;7.078;2023-05-06T03:35:31;14.83;;;12.47;;
11100;SDS011;5604;50.722;7.078;2023-05-06T03:38:00;14.57;;;13.07;;
11100;SDS011;5604;50.722;7.078;2023-05-06T03:40:39;12.97;;;11.67;;
11100;SDS011;5604;50.722;7.078;2023-05-06T03:43:07;14.43;;;12.07;;
11100;SDS011;5604;50.722;7.078;2023-05-06T03:45:37;13.70;;;12.40;;
11100;SDS011;5604;50.722;7.078;2023-05-06T03:48:05;14.20;;;12.70;;
11100;SDS011;5604;50.722;7.078;2023-05-06T03:50:38;12.83;;;11.53;;
11100;SDS011;5604;50.722;7.078;2023-05-06T03:53:06;13.17;;;11.53;;
11100;SDS011;5604;50.722;7.078;2023-05-06T03:55:37;13.07;;;11.30;;
11100;SDS011;5604;50.722;7.078;2023-05-06T03:58:05;16.33;;;10.83;;
11100;SDS011;5604;50.722;7.078;2023-05-06T04:00:33;12.03;;;10.83;;
11100;SDS011;5604;50.722;7.078;2023-05-06T04:03:02;12.33;;;11.13;;
11100;SDS011;5604;50.722;7.078;2023-05-06T04:05:39;12.27;;;10.97;;
11100;SDS011;5604;50.722;7.078;2023-05-06T04:08:10;14.50;;;12.03;;
11100;SDS011;5604;50.722;7.078;2023-05-06T04:10:38;13.03;;;11.73;;
11100;SDS011;5604;50.722;7.078;2023-05-06T04:13:14;10.50;;;9.50;;
11100;SDS011;5604;50.722;7.078;2023-05-06T04:15:44;11.20;;;10.03;;
11100;SDS011;5604;50.722;7.078;2023-05-06T04:18:17;11.50;;;10.40;;
11100;SDS011;5604;50.722;7.078;2023-05-06T04:20:56;19.23;;;10.70;;
11100;SDS011;5604;50.722;7.078;2023-05-06T04:23:26;10.10;;;9.10;;
11100;SDS011;5604;50.722;7.078;2023-05-06T04:25:56;11.47;;;10.13;;
11100;SDS011;5604;50.722;7.078;2023-05-06T04:28:26;10.63;;;9.60;;
11100;SDS011;5604;50.722;7.078;2023-05-06T04:30:54;11.23;;;10.13;;
11100;SDS011;5604;50.722;7.078;2023-05-06T04:33:31;11.13;;;10.13;;
11100;SDS011;5604;50.722;7.078;2023-05-06T04:36:02;10.67;;;9.67;;
11100;SDS011;5604;50.722;7.078;2023-05-06T04:38:32;9.77;;;8.93;;
11100;SDS011;5604;50.722;7.078;2023-05-06T04:41:03;10.37;;;9.37;;
11100;SDS011;5604;50.722;7.078;2023-05-06T04:43:32;10.07;;;9.10;;
11100;SDS011;5604;50.722;7.078;2023-05-06T04:46:07;11.30;;;9.50;;
11100;SDS011;5604;50.722;7.078;2023-05-06T04:48:38;10.10;;;9.10;;
11100;SDS011;5604;50.722;7.078;2023-05-06T04:51:10;10.20;;;9.10;;
11100;SDS011;5604;50.722;7.078;2023-05-06T04:53:39;9.93;;;8.97;;
11100;SDS011;5604;50.722;7.078;2023-05-06T04:56:07;10.47;;;9.30;;
11100;SDS011;5604;50.722;7.078;2023-05-06T04:58:35;10.30;;;9.30;;
11100;SDS011;5604;50.722;7.078;2023-05-06T05:01:06;10.43;;;9.33;;
11100;SDS011;5604;50.722;7.078;2023-05-06T05:03:35;9.73;;;8.50;;
11100;SDS011;5604;50.722;7.078;2023-05-06T05:06:04;10.43;;;9.47;;
11100;SDS011;5604;50.722;7.078;2023-05-06T05:08:34;10.13;;;9.13;;
11100;SDS011;5604;50.722;7.078;2023-05-06T05:11:02;9.63;;;8.73;;
11100;SDS011;5604;50.722;7.078;2023-05-06T05:13:33;9.70;;;8.63;;
11100;SDS011;5604;50.722;7.078;2023-05-06T05:16:03;10.07;;;9.03;;
11100;SDS011;5604;50.722;7.078;2023-05-06T05:18:36;8.50;;;7.80;;
11100;SDS011;5604;50.722;7.078;2023-05-06T05:21:11;7.23;;;6.63;;
11100;SDS011;5604;50.722;7.078;2023-05-06T05:23:41;7.20;;;6.10;;
11100;SDS011;5604;50.722;7.078;2023-05-06T05:26:09;6.37;;;5.87;;
11100;SDS011;5604;50.722;7.078;2023-05-06T05:28:38;5.40;;;4.90;;
11100;SDS011;5604;50.722;7.078;2023-05-06T05:31:06;6.03;;;5.40;;
11100;SDS011;5604;50.722;7.078;2023-05-06T05:33:37;5.13;;;4.70;;
11100;SDS011;5604;50.722;7.078;2023-05-06T05:36:09;5.53;;;5.03;;
11100;SDS011;5604;50.722;7.078;2023-05-06T05:38:44;5.00;;;4.60;;
11100;SDS011;5604;50.722;7.078;2023-05-06T05:41:13;5.07;;;4.57;;
11100;SDS011;5604;50.722;7.078;2023-05-06T05:43:44;5.17;;;4.77;;
11100;SDS011;5604;50.722;7.078;2023-05-06T05:46:13;4.83;;;4.30;;
11100;SDS011;5604;50.722;7.078;2023-05-06T05:48:43;4.70;;;4.30;;
11100;SDS011;5604;50.722;7.078;2023-05-06T05:51:12;4.57;;;4.27;;
11100;SDS011;5604;50.722;7.078;2023-05-06T05:53:41;5.00;;;4.30;;
11100;SDS011;5604;50.722;7.078;2023-05-06T05:56:11;5.37;;;4.83;;
11100;SDS011;5604;50.722;7.078;2023-05-06T05:58:40;5.90;;;5.40;;
11100;SDS011;5604;50.722;7.078;2023-05-06T06:01:08;5.63;;;5.13;;
11100;SDS011;5604;50.722;7.078;2023-05-06T06:03:36;6.00;;;5.50;;
11100;SDS011;5604;50.722;7.078;2023-05-06T06:06:05;5.77;;;5.27;;
11100;SDS011;5604;50.722;7.078;2023-05-06T06:08:35;6.87;;;5.93;;
11100;SDS011;5604;50.722;7.078;2023-05-06T06:11:03;5.97;;;5.33;;
11100;SDS011;5604;50.722;7.078;2023-05-06T06:13:38;5.87;;;5.37;;
11100;SDS011;5604;50.722;7.078;2023-05-06T06:16:06;8.97;;;5.57;;
11100;SDS011;5604;50.722;7.078;2023-05-06T06:18:35;6.00;;;5.47;;
11100;SDS011;5604;50.722;7.078;2023-05-06T06:21:03;5.43;;;5.00;;
11100;SDS011;5604;50.722;7.078;2023-05-06T06:23:32;5.30;;;4.50;;
11100;SDS011;5604;50.722;7.078;2023-05-06T06:26:01;5.67;;;4.43;;
11100;SDS011;5604;50.722;7.078;2023-05-06T06:28:31;5.30;;;4.63;;
11100;SDS011;5604;50.722;7.078;2023-05-06T06:31:01;5.23;;;4.40;;
11100;SDS011;5604;50.722;7.078;2023-05-06T06:33:29;4.97;;;4.43;;
11100;SDS011;5604;50.722;7.078;2023-05-06T06:35:57;5.10;;;4.70;;
11100;SDS011;5604;50.722;7.078;2023-05-06T06:38:25;6.30;;;4.30;;
11100;SDS011;5604;50.722;7.078;2023-05-06T06:40:53;5.57;;;5.00;;
11100;SDS011;5604;50.722;7.078;2023-05-06T06:43:21;4.63;;;4.27;;
11100;SDS011;5604;50.722;7.078;2023-05-06T06:46:02;4.73;;;3.90;;
11100;SDS011;5604;50.722;7.078;2023-05-06T06:48:30;4.70;;;4.10;;
11100;SDS011;5604;50.722;7.078;2023-05-06T06:50:58;5.30;;;4.37;;
11100;SDS011;5604;50.722;7.078;2023-05-06T06:53:26;4.80;;;4.10;;
11100;SDS011;5604;50.722;7.078;2023-05-06T06:55:54;5.10;;;3.90;;
11100;SDS011;5604;50.722;7.078;2023-05-06T06:58:23;5.03;;;4.03;;
11100;SDS011;5604;50.722;7.078;2023-05-06T07:00:51;4.63;;;3.70;;
11100;SDS011;5604;50.722;7.078;2023-05-06T07:03:20;4.63;;;4.07;;
11100;SDS011;5604;50.722;7.078;2023-05-06T07:05:48;3.93;;;3.63;;
11100;SDS011;5604;50.722;7.078;2023-05-06T07:08:17;3.97;;;3.10;;
11100;SDS011;5604;50.722;7.078;2023-05-06T07:10:47;3.90;;;3.20;;
11100;SDS011;5604;50.722;7.078;2023-05-06T07:13:15;3.43;;;2.63;;
11100;SDS011;5604;50.722;7.078;2023-05-06T07:15:43;4.03;;;3.00;;
11100;SDS011;5604;50.722;7.078;2023-05-06T07:18:11;3.13;;;2.83;;
11100;SDS011;5604;50.722;7.078;2023-05-06T07:20:41;3.30;;;2.80;;
11100;SDS011;5604;50.722;7.078;2023-05-06T07:23:09;4.60;;;2.53;;
11100;SDS011;5604;50.722;7.078;2023-05-06T07:25:37;4.10;;;2.40;;
11100;SDS011;5604;50.722;7.078;2023-05-06T07:28:05;3.10;;;2.80;;
11100;SDS011;5604;50.722;7.078;2023-05-06T07:30:36;3.73;;;2.60;;
11100;SDS011;5604;50.722;7.078;2023-05-06T07:33:04;2.90;;;2.63;;
11100;SDS011;5604;50.722;7.078;2023-05-06T07:35:32;2.53;;;2.13;;
11100;SDS011;5604;50.722;7.078;2023-05-06T07:38:02;2.80;;;2.60;;
11100;SDS011;5604;50.722;7.078;2023-05-06T07:40:30;2.00;;;1.90;;
11100;SDS011;5604;50.722;7.078;2023-05-06T07:42:58;2.10;;;2.00;;
11100;SDS011;5604;50.722;7.078;2023-05-06T07:45:26;2.33;;;2.13;;
11100;SDS011;5604;50.722;7.078;2023-05-06T07:47:54;2.70;;;2.00;;
11100;SDS011;5604;50.722;7.078;2023-05-06T07:50:22;2.40;;;2.10;;
11100;SDS011;5604;50.722;7.078;2023-05-06T07:52:51;3.40;;;2.40;;
11100;SDS011;5604;50.722;7.078;2023-05-06T07:55:21;3.77;;;2.10;;
11100;SDS011;5604;50.722;7.078;2023-05-06T07:57:49;3.50;;;2.43;;
11100;SDS011;5604;50.722;7.078;2023-05-06T08:00:17;2.90;;;2.63;;
11100;SDS011;5604;50.722;7.078;2023-05-06T08:02:45;3.67;;;2.20;;
11100;SDS011;5604;50.722;7.078;2023-05-06T08:05:14;2.30;;;2.10;;
11100;SDS011;5604;50.722;7.078;2023-05-06T08:07:42;3.33;;;1.93;;
11100;SDS011;5604;50.722;7.078;2023-05-06T08:10:11;4.17;;;1.70;;
11100;SDS011;5604;50.722;7.078;2023-05-06T08:12:40;2.17;;;1.97;;
11100;SDS011;5604;50.722;7.078;2023-05-06T08:15:09;2.40;;;2.20;;
11100;SDS011;5604;50.722;7.078;2023-05-06T08:17:38;3.10;;;2.40;;
11100;SDS011;5604;50.722;7.078;2023-05-06T08:20:07;2.90;;;2.10;;
11100;SDS011;5604;50.722;7.078;2023-05-06T08:22:35;2.37;;;2.17;;
11100;SDS011;5604;50.722;7.078;2023-05-06T08:25:05;3.43;;;2.20;;
11100;SDS011;5604;50.722;7.078;2023-05-06T08:27:34;3.27;;;2.40;;
11100;SDS011;5604;50.722;7.078;2023-05-06T08:30:04;2.60;;;2.40;;
11100;SDS011;5604;50.722;7.078;2023-05-06T08:32:33;2.13;;;2.03;;
11100;SDS011;5604;50.722;7.078;2023-05-06T08:35:01;2.17;;;1.97;;
11100;SDS011;5604;50.722;7.078;2023-05-06T08:37:29;2.47;;;2.10;;
11100;SDS011;5604;50.722;7.078;2023-05-06T08:39:57;2.33;;;2.10;;
11100;SDS011;5604;50.722;7.078;2023-05-06T08:42:25;2.70;;;2.40;;
11100;SDS011;5604;50.722;7.078;2023-05-06T08:44:54;3.67;;;2.10;;
11100;SDS011;5604;50.722;7.078;2023-05-06T08:47:24;5.93;;;1.97;;
11100;SDS011;5604;50.722;7.078;2023-05-06T08:49:52;2.00;;;1.80;;
11100;SDS011;5604;50.722;7.078;2023-05-06T08:52:20;1.93;;;1.73;;
11100;SDS011;5604;50.722;7.078;2023-05-06T08:54:49;2.30;;;1.60;;
11100;SDS011;5604;50.722;7.078;2023-05-06T08:57:19;2.00;;;1.40;;
11100;SDS011;5604;50.722;7.078;2023-05-06T08:59:47;1.50;;;1.40;;
11100;SDS011;5604;50.722;7.078;2023-05-06T09:02:16;1.93;;;1.60;;
11100;SDS011;5604;50.722;7.078;2023-05-06T09:04:46;2.17;;;1.60;;
11100;SDS011;5604;50.722;7.078;2023-05-06T09:07:14;2.10;;;1.83;;
11100;SDS011;5604;50.722;7.078;2023-05-06T09:09:42;2.00;;;1.60;;
11100;SDS011;5604;50.722;7.078;2023-05-06T09:12:10;2.30;;;1.80;;
11100;SDS011;5604;50.722;7.078;2023-05-06T09:14:39;3.57;;;1.83;;
11100;SDS011;5604;50.722;7.078;2023-05-06T09:17:15;1.83;;;1.47;;
11100;SDS011;5604;50.722;7.078;2023-05-06T09:19:51;2.23;;;1.47;;
11100;SDS011;5604;50.722;7.078;2023-05-06T09:22:20;3.37;;;1.40;;
11100;SDS011;5604;50.722;7.078;2023-05-06T09:24:48;2.00;;;1.30;;
11100;SDS011;5604;50.722;7.078;2023-05-06T09:27:22;2.03;;;1.20;;
11100;SDS011;5604;50.722;7.078;2023-05-06T09:29:58;1.43;;;1.20;;
11100;SDS011;5604;50.722;7.078;2023-05-06T09:32:29;1.80;;;1.33;;
11100;SDS011;5604;50.722;7.078;2023-05-06T09:34:59;1.60;;;1.20;;
11100;SDS011;5604;50.722;7.078;2023-05-06T09:37:28;2.60;;;1.20;;
11100;SDS011;5604;50.722;7.078;2023-05-06T09:39:56;1.20;;;1.10;;
11100;SDS011;5604;50.722;7.078;2023-05-06T09:42:26;1.53;;;1.43;;
11100;SDS011;5604;50.722;7.078;2023-05-06T09:44:55;2.13;;;1.27;;
11100;SDS011;5604;50.722;7.078;2023-05-06T09:47:31;1.00;;;0.90;;
11100;SDS011;5604;50.722;7.078;2023-05-06T09:50:02;1.00;;;1.00;;
11100;SDS011;5604;50.722;7.078;2023-05-06T09:52:32;1.77;;;1.10;;
11100;SDS011;5604;50.722;7.078;2023-05-06T09:55:00;1.50;;;0.87;;
11100;SDS011;5604;50.722;7.078;2023-05-06T09:57:29;1.07;;;0.80;;
11100;SDS011;5604;50.722;7.078;2023-05-06T09:59:57;1.47;;;1.23;;
11100;SDS011;5604;50.722;7.078;2023-05-06T10:02:27;1.70;;;1.00;;
11100;SDS011;5604;50.722;7.078;2023-05-06T10:04:55;1.27;;;1.07;;
11100;SDS011;5604;50.722;7.078;2023-05-06T10:07:25;2.07;;;1.10;;
11100;SDS011;5604;50.722;7.078;2023-05-06T10:09:55;2.43;;;1.20;;
11100;SDS011;5604;50.722;7.078;2023-05-06T10:12:25;1.20;;;1.10;;
11100;SDS011;5604;50.722;7.078;2023-05-06T10:14:53;1.30;;;0.90;;
11100;SDS011;5604;50.722;7.078;2023-05-06T10:17:22;2.20;;;1.43;;
11100;SDS011;5604;50.722;7.078;2023-05-06T10:19:54;2.63;;;0.97;;
11100;SDS011;5604;50.722;7.078;2023-05-06T10:22:28;2.33;;;1.10;;
11100;SDS011;5604;50.722;7.078;2023-05-06T10:25:02;1.50;;;0.93;;
11100;SDS011;5604;50.722;7.078;2023-05-06T10:27:34;1.50;;;1.00;;
11100;SDS011;5604;50.722;7.078;2023-05-06T10:30:03;3.30;;;1.10;;
11100;SDS011;5604;50.722;7.078;2023-05-06T10:32:32;1.03;;;0.93;;
11100;SDS011;5604;50.722;7.078;2023-05-06T10:35:01;2.27;;;0.97;;
11100;SDS011;5604;50.722;7.078;2023-05-06T10:37:34;1.40;;;0.80;;
11100;SDS011;5604;50.722;7.078;2023-05-06T10:40:02;1.20;;;0.77;;
11100;SDS011;5604;50.722;7.078;2023-05-06T10:42:32;0.80;;;0.70;;
11100;SDS011;5604;50.722;7.078;2023-05-06T10:45:01;1.03;;;0.90;;
11100;SDS011;5604;50.722;7.078;2023-05-06T10:50:34;1.13;;;0.80;;
11100;SDS011;5604;50.722;7.078;2023-05-06T10:53:03;1.00;;;0.80;;
11100;SDS011;5604;50.722;7.078;2023-05-06T10:55:32;1.33;;;1.10;;
11100;SDS011;5604;50.722;7.078;2023-05-06T10:58:10;2.47;;;1.00;;
11100;SDS011;5604;50.722;7.078;2023-05-06T11:00:40;1.37;;;0.80;;
11100;SDS011;5604;50.722;7.078;2023-05-06T11:03:09;2.63;;;0.87;;
11100;SDS011;5604;50.722;7.078;2023-05-06T11:05:48;1.73;;;1.00;;
11100;SDS011;5604;50.722;7.078;2023-05-06T11:08:21;2.77;;;1.10;;
11100;SDS011;5604;50.722;7.078;2023-05-06T11:10:50;1.40;;;1.00;;
11100;SDS011;5604;50.722;7.078;2023-05-06T11:13:19;0.83;;;0.70;;
11100;SDS011;5604;50.722;7.078;2023-05-06T11:15:49;1.70;;;1.07;;
11100;SDS011;5604;50.722;7.078;2023-05-06T11:24:07;1.13;;;0.80;;
11100;SDS011;5604;50.722;7.078;2023-05-06T11:26:38;1.50;;;0.80;;
11100;SDS011;5604;50.722;7.078;2023-05-06T11:29:07;1.60;;;0.70;;
11100;SDS011;5604;50.722;7.078;2023-05-06T11:31:39;1.57;;;0.90;;
11100;SDS011;5604;50.722;7.078;2023-05-06T11:34:09;1.13;;;0.80;;
11100;SDS011;5604;50.722;7.078;2023-05-06T11:36:45;1.20;;;0.73;;
11100;SDS011;5604;50.722;7.078;2023-05-06T11:39:16;0.97;;;0.87;;
11100;SDS011;5604;50.722;7.078;2023-05-06T11:41:44;1.00;;;0.70;;
11100;SDS011;5604;50.722;7.078;2023-05-06T11:44:22;0.97;;;0.80;;
11100;SDS011;5604;50.722;7.078;2023-05-06T11:46:51;2.30;;;1.00;;
11100;SDS011;5604;50.722;7.078;2023-05-06T11:49:22;1.57;;;0.93;;
11100;SDS011;5604;50.722;7.078;2023-05-06T11:51:51;1.53;;;1.00;;
11100;SDS011;5604;50.722;7.078;2023-05-06T11:54:20;1.07;;;0.93;;
11100;SDS011;5604;50.722;7.078;2023-05-06T11:56:49;1.30;;;0.83;;
11100;SDS011;5604;50.722;7.078;2023-05-06T11:59:25;1.63;;;1.00;;
11100;SDS011;5604;50.722;7.078;2023-05-06T12:01:55;2.30;;;1.23;;
11100;SDS011;5604;50.722;7.078;2023-05-06T12:04:24;1.77;;;1.00;;
11100;SDS011;5604;50.722;7.078;2023-05-06T12:06:52;2.20;;;0.77;;
11100;SDS011;5604;50.722;7.078;2023-05-06T12:09:22;0.77;;;0.70;;
11100;SDS011;5604;50.722;7.078;2023-05-06T12:11:51;3.37;;;1.17;;
11100;SDS011;5604;50.722;7.078;2023-05-06T12:14:20;1.87;;;1.00;;
11100;SDS011;5604;50.722;7.078;2023-05-06T12:16:48;2.50;;;1.07;;
11100;SDS011;5604;50.722;7.078;2023-05-06T12:19:18;1.43;;;0.97;;
11100;SDS011;5604;50.722;7.078;2023-05-06T12:21:47;1.60;;;1.10;;
11100;SDS011;5604;50.722;7.078;2023-05-06T12:24:24;2.60;;;0.90;;
11100;SDS011;5604;50.722;7.078;2023-05-06T12:26:55;0.90;;;0.70;;
11100;SDS011;5604;50.722;7.078;2023-05-06T12:29:23;1.57;;;0.83;;
11100;SDS011;5604;50.722;7.078;2023-05-06T12:32:05;2.57;;;0.90;;
11100;SDS011;5604;50.722;7.078;2023-05-06T12:34:35;2.80;;;0.90;;
11100;SDS011;5604;50.722;7.078;2023-05-06T12:37:03;1.10;;;1.00;;
11100;SDS011;5604;50.722;7.078;2023-05-06T12:39:35;1.47;;;1.03;;
11100;SDS011;5604;50.722;7.078;2023-05-06T12:42:05;2.13;;;1.43;;
11100;SDS011;5604;50.722;7.078;2023-05-06T12:44:34;2.63;;;0.90;;
11100;SDS011;5604;50.722;7.078;2023-05-06T12:47:04;2.40;;;0.90;;
11100;SDS011;5604;50.722;7.078;2023-05-06T12:49:43;1.10;;;1.00;;
11100;SDS011;5604;50.722;7.078;2023-05-06T12:52:14;1.17;;;0.93;;
11100;SDS011;5604;50.722;7.078;2023-05-06T12:54:44;2.17;;;0.70;;
11100;SDS011;5604;50.722;7.078;2023-05-06T12:57:13;0.70;;;0.70;;
11100;SDS011;5604;50.722;7.078;2023-05-06T12:59:41;0.70;;;0.70;;
11100;SDS011;5604;50.722;7.078;2023-05-06T13:02:10;1.97;;;0.60;;
11100;SDS011;5604;50.722;7.078;2023-05-06T13:04:38;1.03;;;0.90;;
11100;SDS011;5604;50.722;7.078;2023-05-06T13:07:07;1.23;;;1.00;;
11100;SDS011;5604;50.722;7.078;2023-05-06T13:09:35;2.43;;;0.90;;
11100;SDS011;5604;50.722;7.078;2023-05-06T13:12:05;1.53;;;0.97;;
11100;SDS011;5604;50.722;7.078;2023-05-06T13:14:33;1.63;;;1.07;;
11100;SDS011;5604;50.722;7.078;2023-05-06T13:17:05;2.07;;;0.70;;
11100;SDS011;5604;50.722;7.078;2023-05-06T13:19:33;2.50;;;1.03;;
11100;SDS011;5604;50.722;7.078;2023-05-06T13:22:01;1.93;;;1.10;;
11100;SDS011;5604;50.722;7.078;2023-05-06T13:24:29;4.27;;;1.37;;
11100;SDS011;5604;50.722;7.078;2023-05-06T13:26:58;2.50;;;0.90;;
11100;SDS011;5604;50.722;7.078;2023-05-06T13:29:28;1.90;;;0.97;;
11100;SDS011;5604;50.722;7.078;2023-05-06T13:32:00;3.07;;;1.10;;
11100;SDS011;5604;50.722;7.078;2023-05-06T13:34:31;1.37;;;0.90;;
11100;SDS011;5604;50.722;7.078;2023-05-06T13:36:59;1.20;;;0.93;;
11100;SDS011;5604;50.722;7.078;2023-05-06T13:39:30;0.93;;;0.83;;
11100;SDS011;5604;50.722;7.078;2023-05-06T13:41:58;1.90;;;1.20;;
11100;SDS011;5604;50.722;7.078;2023-05-06T13:44:29;1.20;;;0.70;;
11100;SDS011;5604;50.722;7.078;2023-05-06T13:46:58;1.13;;;0.80;;
11100;SDS011;5604;50.722;7.078;2023-05-06T13:49:26;1.90;;;1.20;;
11100;SDS011;5604;50.722;7.078;2023-05-06T13:51:54;0.90;;;0.90;;
11100;SDS011;5604;50.722;7.078;2023-05-06T13:54:22;1.30;;;0.97;;
11100;SDS011;5604;50.722;7.078;2023-05-06T13:56:50;1.37;;;0.90;;
11100;SDS011;5604;50.722;7.078;2023-05-06T13:59:18;1.50;;;1.10;;
11100;SDS011;5604;50.722;7.078;2023-05-06T14:01:48;1.33;;;0.97;;
11100;SDS011;5604;50.722;7.078;2023-05-06T14:04:19;1.23;;;1.13;;
11100;SDS011;5604;50.722;7.078;2023-05-06T14:06:47;3.70;;;1.20;;
11100;SDS011;5604;50.722;7.078;2023-05-06T14:09:15;3.03;;;1.03;;
11100;SDS011;5604;50.722;7.078;2023-05-06T14:11:43;2.67;;;1.20;;
11100;SDS011;5604;50.722;7.078;2023-05-06T14:14:11;1.23;;;1.00;;
11100;SDS011;5604;50.722;7.078;2023-05-06T14:16:41;2.33;;;0.90;;
11100;SDS011;5604;50.722;7.078;2023-05-06T14:19:10;2.63;;;1.20;;
11100;SDS011;5604;50.722;7.078;2023-05-06T14:21:38;3.27;;;1.40;;
11100;SDS011;5604;50.722;7.078;2023-05-06T14:24:07;3.97;;;1.43;;
11100;SDS011;5604;50.722;7.078;2023-05-06T14:26:36;1.70;;;0.93;;
11100;SDS011;5604;50.722;7.078;2023-05-06T14:29:04;3.07;;;1.00;;
11100;SDS011;5604;50.722;7.078;2023-05-06T14:31:32;2.87;;;1.30;;
11100;SDS011;5604;50.722;7.078;2023-05-06T14:34:00;1.17;;;0.97;;
11100;SDS011;5604;50.722;7.078;2023-05-06T14:36:30;0.80;;;0.80;;
11100;SDS011;5604;50.722;7.078;2023-05-06T14:38:58;1.83;;;0.90;;
11100;SDS011;5604;50.722;7.078;2023-05-06T14:41:26;3.43;;;1.00;;
11100;SDS011;5604;50.722;7.078;2023-05-06T14:43:55;3.00;;;1.60;;
11100;SDS011;5604;50.722;7.078;2023-05-06T14:46:23;3.90;;;2.30;;
11100;SDS011;5604;50.722;7.078;2023-05-06T14:48:55;3.07;;;2.00;;
11100;SDS011;5604;50.722;7.078;2023-05-06T14:51:23;1.90;;;1.43;;
11100;SDS011;5604;50.722;7.078;2023-05-06T14:53:53;1.83;;;1.30;;
11100;SDS011;5604;50.722;7.078;2023-05-06T14:56:21;3.57;;;1.70;;
11100;SDS011;5604;50.722;7.078;2023-05-06T14:58:49;3.63;;;1.90;;
11100;SDS011;5604;50.722;7.078;2023-05-06T15:01:17;2.33;;;1.50;;
11100;SDS011;5604;50.722;7.078;2023-05-06T15:03:46;3.03;;;1.40;;
11100;SDS011;5604;50.722;7.078;2023-05-06T15:06:16;3.90;;;2.50;;
11100;SDS011;5604;50.722;7.078;2023-05-06T15:08:44;3.90;;;2.47;;
11100;SDS011;5604;50.722;7.078;2023-05-06T15:11:15;3.23;;;2.10;;
11100;SDS011;5604;50.722;7.078;2023-05-06T15:13:44;4.20;;;1.90;;
11100;SDS011;5604;50.722;7.078;2023-05-06T15:16:12;2.33;;;1.70;;